createdAt,value
2024-02-13T00:01:13.127Z,2.69
2024-02-13T00:02:54.689Z,2.62
2024-02-13T00:04:36.126Z,2.68
2024-02-13T00:06:17.485Z,2.61
2024-02-13T00:07:58.906Z,2.47
2024-02-13T00:09:40.300Z,1.94
2024-02-13T00:11:21.686Z,1.65
2024-02-13T00:13:03.043Z,1.41
2024-02-13T00:14:46.219Z,1.32
2024-02-13T00:16:28.485Z,1.46
2024-02-13T00:18:10.142Z,1.57
2024-02-13T00:19:51.667Z,1.53
2024-02-13T00:21:33.047Z,1.83
2024-02-13T00:23:14.387Z,2.11
2024-02-13T00:24:55.772Z,2.19
2024-02-13T00:26:37.146Z,1.97
2024-02-13T00:28:18.604Z,1.85
2024-02-13T00:29:59.978Z,1.91
2024-02-13T00:31:41.325Z,2.10
2024-02-13T00:33:22.725Z,2.36
2024-02-13T00:35:04.168Z,2.36
2024-02-13T00:36:45.538Z,1.85
2024-02-13T00:38:26.922Z,1.93
2024-02-13T00:40:08.305Z,1.22
2024-02-13T00:41:49.738Z,0.80
2024-02-13T00:43:31.253Z,0.53
2024-02-13T00:45:13.214Z,0.32
2024-02-13T00:46:54.638Z,0.26
2024-02-13T00:48:36.014Z,0.54
2024-02-13T00:50:17.416Z,0.50
2024-02-13T00:51:58.786Z,0.62
2024-02-13T00:53:40.129Z,1.03
2024-02-13T00:55:21.516Z,1.04
2024-02-13T00:57:02.922Z,1.04
2024-02-13T00:58:44.305Z,1.17
2024-02-13T01:00:25.713Z,1.14
2024-02-13T01:02:07.070Z,1.12
2024-02-13T01:03:48.469Z,1.04
2024-02-13T01:05:29.855Z,0.68
2024-02-13T01:07:11.300Z,0.68
2024-02-13T01:08:52.698Z,0.62
2024-02-13T01:10:34.088Z,0.48
2024-02-13T01:12:15.465Z,0.49
2024-02-13T01:13:56.806Z,0.49
2024-02-13T01:15:38.219Z,0.46
2024-02-13T01:17:19.583Z,0.21
2024-02-13T01:19:01.077Z,-0.11
2024-02-13T01:20:42.573Z,0.29
2024-02-13T01:22:23.936Z,0.31
2024-02-13T01:24:05.375Z,0.17
2024-02-13T01:25:46.725Z,0.41
2024-02-13T01:27:28.077Z,0.68
2024-02-13T01:29:09.445Z,0.69
2024-02-13T01:30:50.848Z,0.56
2024-02-13T01:32:32.298Z,0.59
2024-02-13T01:34:13.766Z,0.77
2024-02-13T01:35:55.321Z,0.70
2024-02-13T01:37:36.783Z,0.85
2024-02-13T01:39:18.202Z,0.38
2024-02-13T01:40:59.685Z,0.14
2024-02-13T01:42:41.057Z,0.10
2024-02-13T01:44:22.471Z,0.40
2024-02-13T01:46:03.909Z,0.81
2024-02-13T01:47:45.365Z,0.37
2024-02-13T01:49:26.870Z,0.26
2024-02-13T01:51:08.365Z,0.29
2024-02-13T01:52:49.749Z,0.11
2024-02-13T01:54:31.094Z,0.05
2024-02-13T01:56:12.495Z,-0.16
2024-02-13T01:57:53.871Z,-0.12
2024-02-13T01:59:35.258Z,0.00
2024-02-13T02:01:16.657Z,0.33
2024-02-13T02:02:58.108Z,0.26
2024-02-13T02:04:39.537Z,0.18
2024-02-13T02:06:20.985Z,0.29
2024-02-13T02:08:02.453Z,0.31
2024-02-13T02:09:43.870Z,0.17
2024-02-13T02:11:26.542Z,0.13
2024-02-13T02:13:08.148Z,0.42
2024-02-13T02:14:49.707Z,0.46
2024-02-13T02:16:31.110Z,0.56
2024-02-13T02:18:12.592Z,0.69
2024-02-13T02:19:54.119Z,0.93
2024-02-13T02:21:35.477Z,1.08
2024-02-13T02:23:16.811Z,1.28
2024-02-13T02:24:58.205Z,1.04
2024-02-13T02:26:39.597Z,1.18
2024-02-13T02:28:21.080Z,1.21
2024-02-13T02:30:02.489Z,1.05
2024-02-13T02:31:43.890Z,1.00
2024-02-13T02:33:25.308Z,0.61
2024-02-13T02:35:06.803Z,0.04
2024-02-13T02:36:48.159Z,-0.06
2024-02-13T02:38:29.526Z,0.02
2024-02-13T02:40:10.907Z,-0.24
2024-02-13T02:41:52.390Z,-0.46
2024-02-13T02:43:33.917Z,-0.81
2024-02-13T02:45:15.303Z,-0.89
2024-02-13T02:46:56.658Z,-1.21
2024-02-13T02:48:38.080Z,-1.36
2024-02-13T02:50:19.521Z,-1.47
2024-02-13T02:52:00.921Z,-1.27
2024-02-13T02:53:42.481Z,-1.34
2024-02-13T02:55:24.163Z,-0.87
2024-02-13T02:57:05.613Z,-0.69
2024-02-13T02:58:47.013Z,-0.57
2024-02-13T03:00:28.376Z,-0.35
2024-02-13T03:02:09.773Z,-0.53
2024-02-13T03:03:51.349Z,-0.66
2024-02-13T03:05:32.880Z,-0.61
2024-02-13T03:07:14.257Z,-1.01
2024-02-13T03:08:55.669Z,-1.63
2024-02-13T03:10:37.072Z,-2.92
2024-02-13T03:12:18.413Z,-2.94
2024-02-13T03:13:59.764Z,-3.16
2024-02-13T03:15:41.148Z,-2.63
2024-02-13T03:17:22.611Z,-2.48
2024-02-13T03:19:04.172Z,-2.24
2024-02-13T03:20:45.587Z,-1.96
2024-02-13T03:22:27.015Z,-1.76
2024-02-13T03:24:08.400Z,-1.74
2024-02-13T03:25:49.779Z,-1.55
2024-02-13T03:27:31.142Z,-1.36
2024-02-13T03:29:12.555Z,-1.31
2024-02-13T03:30:53.910Z,-1.18
2024-02-13T03:32:35.499Z,-1.49
2024-02-13T03:34:17.209Z,-1.53
2024-02-13T03:35:58.619Z,-1.29
2024-02-13T03:37:39.965Z,-0.76
2024-02-13T03:39:21.322Z,-0.47
2024-02-13T03:41:02.679Z,-0.50
2024-02-13T03:42:44.018Z,-1.07
2024-02-13T03:44:25.393Z,-1.41
2024-02-13T03:46:06.718Z,-1.73
2024-02-13T03:47:48.202Z,-1.47
2024-02-13T03:49:29.703Z,-1.71
2024-02-13T03:51:11.108Z,-1.90
2024-02-13T03:52:52.461Z,-2.17
2024-02-13T03:54:33.851Z,-2.27
2024-02-13T03:56:15.242Z,-2.63
2024-02-13T03:57:56.592Z,-2.69
2024-02-13T03:59:38.134Z,-2.76
2024-02-13T04:01:19.495Z,-2.65
2024-02-13T04:03:00.824Z,-2.52
2024-02-13T04:04:42.204Z,-2.16
2024-02-13T04:06:23.706Z,-2.71
2024-02-13T04:08:05.119Z,-3.04
2024-02-13T04:09:46.508Z,-2.88
2024-02-13T04:11:27.876Z,-2.45
2024-02-13T04:13:09.241Z,-2.07
2024-02-13T04:14:50.758Z,-1.88
2024-02-13T04:16:32.394Z,-2.39
2024-02-13T04:18:13.862Z,-2.40
2024-02-13T04:19:55.272Z,-2.27
2024-02-13T04:21:36.635Z,-2.33
2024-02-13T04:23:17.957Z,-2.65
2024-02-13T04:24:59.323Z,-2.62
2024-02-13T04:28:21.995Z,-2.08
2024-02-13T04:30:03.393Z,-2.54
2024-02-13T04:31:44.767Z,-2.23
2024-02-13T04:33:26.246Z,-1.79
2024-02-13T04:35:07.749Z,-1.68
2024-02-13T04:36:49.125Z,-1.75
2024-02-13T04:38:30.489Z,-1.58
2024-02-13T04:40:13.830Z,-1.81
2024-02-13T04:41:56.084Z,-1.75
2024-02-13T04:43:37.420Z,-1.96
2024-02-13T04:45:18.774Z,-2.08
2024-02-13T04:47:00.125Z,-2.55
2024-02-13T04:48:41.563Z,-2.48
2024-02-13T04:50:23.003Z,-2.20
2024-02-13T04:52:04.333Z,-2.21
2024-02-13T04:53:46.429Z,-2.83
2024-02-13T04:55:28.134Z,-3.31
2024-02-13T04:57:09.524Z,-3.68
2024-02-13T04:58:50.882Z,-3.82
2024-02-13T05:00:32.250Z,-4.08
2024-02-13T05:02:13.634Z,-4.35
2024-02-13T05:03:55.023Z,-4.40
2024-02-13T05:05:36.660Z,-4.22
2024-02-13T05:07:18.215Z,-3.83
2024-02-13T05:08:59.550Z,-3.54
2024-02-13T05:10:40.949Z,-3.58
2024-02-13T05:12:22.340Z,-3.19
2024-02-13T05:14:03.890Z,-3.46
2024-02-13T05:15:45.470Z,-3.91
2024-02-13T05:17:26.912Z,-4.10
2024-02-13T05:19:08.481Z,-4.35
2024-02-13T05:20:50.085Z,-3.77
2024-02-13T05:22:31.519Z,-3.61
2024-02-13T05:24:12.885Z,-3.29
2024-02-13T05:25:54.272Z,-3.11
2024-02-13T05:27:35.643Z,-2.95
2024-02-13T05:29:17.020Z,-2.88
2024-02-13T05:30:58.404Z,-2.63
2024-02-13T05:32:39.807Z,-2.24
2024-02-13T05:34:21.238Z,-2.49
2024-02-13T05:36:02.655Z,-2.42
2024-02-13T05:37:44.004Z,-2.48
2024-02-13T05:39:25.331Z,-2.59
2024-02-13T05:41:06.698Z,-2.72
2024-02-13T05:42:48.053Z,-2.90
2024-02-13T05:44:29.412Z,-2.87
2024-02-13T05:46:10.820Z,-3.33
2024-02-13T05:47:52.260Z,-3.00
2024-02-13T05:49:34.222Z,-2.80
2024-02-13T05:51:15.871Z,-3.96
2024-02-13T05:52:57.236Z,-4.11
2024-02-13T05:54:39.944Z,-4.29
2024-02-13T05:56:27.246Z,-4.25
2024-02-13T05:58:09.768Z,-3.91
2024-02-13T05:59:51.227Z,-3.65
2024-02-13T06:01:32.760Z,-3.49
2024-02-13T06:03:14.180Z,-3.40
2024-02-13T06:04:55.517Z,-3.19
2024-02-13T06:06:36.954Z,-3.11
2024-02-13T06:08:18.401Z,-2.90
2024-02-13T06:09:59.764Z,-2.69
2024-02-13T06:11:41.288Z,-2.42
2024-02-13T06:13:22.726Z,-2.34
2024-02-13T06:15:04.138Z,-2.31
2024-02-13T06:16:45.562Z,-2.49
2024-02-13T06:18:27.062Z,-2.42
2024-02-13T06:20:08.610Z,-2.48
2024-02-13T06:21:49.963Z,-2.63
2024-02-13T06:23:31.506Z,-2.66
2024-02-13T06:25:12.963Z,-2.58
2024-02-13T06:26:56.963Z,-2.17
2024-02-13T06:28:38.524Z,-2.36
2024-02-13T06:30:19.952Z,-2.47
2024-02-13T06:32:01.332Z,-2.51
2024-02-13T06:33:42.923Z,-2.23
2024-02-13T06:35:24.396Z,-1.96
2024-02-13T06:37:05.738Z,-2.14
2024-02-13T06:38:47.142Z,-2.33
2024-02-13T06:40:28.527Z,-2.29
2024-02-13T06:42:09.953Z,-2.18
2024-02-13T06:43:51.337Z,-2.13
2024-02-13T06:45:32.771Z,-2.19
2024-02-13T06:47:14.263Z,-2.21
2024-02-13T06:48:55.870Z,-2.28
2024-02-13T06:50:37.336Z,-2.06
2024-02-13T06:52:18.739Z,-2.34
2024-02-13T06:54:00.270Z,-2.34
2024-02-13T06:55:41.721Z,-2.43
2024-02-13T06:57:23.084Z,-2.37
2024-02-13T06:59:04.622Z,-2.11
2024-02-13T07:00:46.033Z,-2.40
2024-02-13T07:02:27.409Z,-2.55
2024-02-13T07:04:08.789Z,-2.79
2024-02-13T07:05:51.446Z,-3.20
2024-02-13T07:07:42.237Z,-3.02
2024-02-13T07:09:28.743Z,-2.86
2024-02-13T07:11:10.223Z,-2.53
2024-02-13T07:12:51.554Z,-2.57
2024-02-13T07:14:33.249Z,-3.27
2024-02-13T07:16:14.695Z,-3.83
2024-02-13T07:18:00.533Z,-3.88
2024-02-13T07:19:43.405Z,-3.99
2024-02-13T07:21:26.212Z,-3.98
2024-02-13T07:23:09.772Z,-3.67
2024-02-13T07:24:51.131Z,-3.59
2024-02-13T07:26:32.500Z,-3.84
2024-02-13T07:28:13.929Z,-3.72
2024-02-13T07:29:55.434Z,-3.66
2024-02-13T07:31:37.046Z,-3.62
2024-02-13T07:33:18.617Z,-3.94
2024-02-13T07:35:00.061Z,-3.88
2024-02-13T07:36:41.533Z,-3.71
2024-02-13T07:38:22.947Z,-3.91
2024-02-13T07:40:04.368Z,-3.82
2024-02-13T07:41:45.897Z,-3.64
2024-02-13T07:43:27.292Z,-3.41
2024-02-13T07:45:08.623Z,-3.21
2024-02-13T07:46:51.353Z,-2.93
2024-02-13T07:48:33.151Z,-3.38
2024-02-13T07:50:15.122Z,-3.51
2024-02-13T07:51:56.765Z,-3.75
2024-02-13T07:53:38.186Z,-4.05
2024-02-13T07:55:19.552Z,-3.91
2024-02-13T07:57:00.920Z,-4.02
2024-02-13T07:58:42.265Z,-3.79
2024-02-13T08:00:23.657Z,-3.43
2024-02-13T08:02:05.050Z,-2.88
2024-02-13T08:03:46.549Z,-2.49
2024-02-13T08:05:27.954Z,-2.82
2024-02-13T08:07:10.453Z,-2.52
2024-02-13T08:08:52.092Z,-2.33
2024-02-13T08:10:33.517Z,-2.11
2024-02-13T08:12:14.847Z,-1.83
2024-02-13T08:13:56.572Z,-2.11
2024-02-13T08:15:38.200Z,-2.30
2024-02-13T08:17:19.623Z,-2.81
2024-02-13T08:19:01.239Z,-2.51
2024-02-13T08:20:42.723Z,-2.68
2024-02-13T08:22:24.424Z,-2.94
2024-02-13T08:24:06.068Z,-2.98
2024-02-13T08:25:47.418Z,-2.68
2024-02-13T08:27:28.760Z,-2.36
2024-02-13T08:29:10.129Z,-1.96
2024-02-13T08:30:51.722Z,-1.89
2024-02-13T08:32:33.322Z,-1.58
2024-02-13T08:34:15.775Z,-1.59
2024-02-13T08:35:57.401Z,-2.16
2024-02-13T08:37:38.816Z,-2.96
2024-02-13T08:39:20.194Z,-3.65
2024-02-13T08:41:01.533Z,-3.58
2024-02-13T08:42:42.875Z,-2.93
2024-02-13T08:44:24.307Z,-2.75
2024-02-13T08:46:05.680Z,-2.77
2024-02-13T08:47:47.105Z,-2.46
2024-02-13T08:49:28.833Z,-2.12
2024-02-13T08:51:10.395Z,-1.93
2024-02-13T08:52:51.836Z,-1.77
2024-02-13T08:54:33.229Z,-2.09
2024-02-13T08:56:14.598Z,-2.31
2024-02-13T08:57:55.966Z,-2.17
2024-02-13T08:59:37.378Z,-1.95
2024-02-13T09:01:18.772Z,-1.60
2024-02-13T09:03:00.350Z,-1.85
2024-02-13T09:04:41.882Z,-1.84
2024-02-13T09:06:23.511Z,-2.06
2024-02-13T09:08:04.891Z,-2.12
2024-02-13T09:09:46.643Z,-2.06
2024-02-13T09:11:28.021Z,-1.52
2024-02-13T09:13:09.458Z,-0.92
2024-02-13T09:14:50.902Z,-0.02
2024-02-13T09:16:32.240Z,1.37
2024-02-13T09:18:13.738Z,2.39
2024-02-13T09:19:55.210Z,3.02
2024-02-13T09:21:36.614Z,3.66
2024-02-13T09:23:18.094Z,4.27
2024-02-13T09:24:59.448Z,4.92
2024-02-13T09:26:40.831Z,5.56
2024-02-13T09:28:22.179Z,6.20
2024-02-13T09:30:03.558Z,6.62
2024-02-13T09:31:47.366Z,7.28
2024-02-13T09:33:29.278Z,7.72
2024-02-13T09:35:10.757Z,8.03
2024-02-13T09:36:52.097Z,8.39
2024-02-13T09:38:33.539Z,8.62
2024-02-13T09:40:15.011Z,8.93
2024-02-13T09:41:56.436Z,9.46
2024-02-13T09:43:41.744Z,9.91
2024-02-13T09:45:25.882Z,9.97
2024-02-13T09:47:07.234Z,10.27
2024-02-13T09:48:49.144Z,10.66
2024-02-13T09:50:33.137Z,10.94
2024-02-13T09:52:14.493Z,11.15
2024-02-13T09:53:55.891Z,11.32
2024-02-13T09:55:37.630Z,11.29
2024-02-13T09:57:19.739Z,10.68
2024-02-13T09:59:01.137Z,11.08
2024-02-13T10:00:42.499Z,11.41
2024-02-13T10:02:23.899Z,11.76
2024-02-13T10:04:05.365Z,12.18
2024-02-13T10:05:46.913Z,12.53
2024-02-13T10:07:28.507Z,12.95
2024-02-13T10:09:09.962Z,13.37
2024-02-13T10:10:51.360Z,13.86
2024-02-13T10:12:32.723Z,13.99
2024-02-13T10:14:14.123Z,14.26
2024-02-13T10:15:55.475Z,14.54
2024-02-13T10:17:36.884Z,14.96
2024-02-13T10:19:18.323Z,14.22
2024-02-13T10:20:59.770Z,13.26
2024-02-13T10:22:41.194Z,11.64
2024-02-13T10:24:22.529Z,11.59
2024-02-13T10:26:03.912Z,9.62
2024-02-13T10:27:45.248Z,7.84
2024-02-13T10:29:26.632Z,7.94
2024-02-13T10:31:08.032Z,7.84
2024-02-13T10:32:49.461Z,7.90
2024-02-13T10:34:30.846Z,7.76
2024-02-13T10:36:12.262Z,7.68
2024-02-13T10:37:53.934Z,8.28
2024-02-13T10:39:35.377Z,8.94
2024-02-13T10:41:16.782Z,9.03
2024-02-13T10:42:58.182Z,9.55
2024-02-13T10:44:40.172Z,10.29
2024-02-13T10:46:21.575Z,11.22
2024-02-13T10:48:03.018Z,11.96
2024-02-13T10:49:44.574Z,12.95
2024-02-13T10:51:25.971Z,13.80
2024-02-13T10:53:07.351Z,13.63
2024-02-13T10:54:48.741Z,13.76
2024-02-13T10:56:30.147Z,14.09
2024-02-13T10:58:17.636Z,14.22
2024-02-13T11:00:05.773Z,14.52
2024-02-13T11:01:47.222Z,14.81
2024-02-13T11:03:28.721Z,15.02
2024-02-13T11:05:10.211Z,15.01
2024-02-13T11:06:51.764Z,15.38
2024-02-13T11:08:33.130Z,15.45
2024-02-13T11:10:14.514Z,15.74
2024-02-13T11:11:56.082Z,15.63
2024-02-13T11:13:37.553Z,15.39
2024-02-13T11:15:18.968Z,15.03
2024-02-13T11:17:00.312Z,15.07
2024-02-13T11:18:41.774Z,14.99
2024-02-13T11:20:23.339Z,14.74
2024-02-13T11:22:04.796Z,14.97
2024-02-13T11:23:46.220Z,14.64
2024-02-13T11:25:27.773Z,15.35
2024-02-13T11:27:20.070Z,14.96
2024-02-13T11:29:08.460Z,14.79
2024-02-13T11:30:49.944Z,14.68
2024-02-13T11:32:31.458Z,14.77
2024-02-13T11:34:12.963Z,14.96
2024-02-13T11:35:54.792Z,14.85
2024-02-13T11:37:36.448Z,14.73
2024-02-13T11:39:17.807Z,15.03
2024-02-13T11:40:59.339Z,14.51
2024-02-13T11:42:40.690Z,14.97
2024-02-13T11:44:22.235Z,15.00
2024-02-13T11:46:03.777Z,15.10
2024-02-13T11:47:45.167Z,15.80
2024-02-13T11:49:27.205Z,15.91
2024-02-13T11:51:08.756Z,16.22
2024-02-13T11:52:50.130Z,16.29
2024-02-13T11:54:31.948Z,16.36
2024-02-13T11:56:13.442Z,15.88
2024-02-13T11:57:54.784Z,15.67
2024-02-13T11:59:36.155Z,16.38
2024-02-13T12:01:17.582Z,16.22
2024-02-13T12:02:59.039Z,16.22
2024-02-13T12:04:40.572Z,15.87
2024-02-13T12:06:21.959Z,16.06
2024-02-13T12:08:03.337Z,16.20
2024-02-13T12:09:44.680Z,16.43
2024-02-13T12:11:26.102Z,16.43
2024-02-13T12:13:07.482Z,16.14
2024-02-13T12:14:48.947Z,16.80
2024-02-13T12:16:30.377Z,16.79
2024-02-13T12:18:11.855Z,16.83
2024-02-13T12:19:53.324Z,16.87
2024-02-13T12:21:34.832Z,16.67
2024-02-13T12:23:16.230Z,16.76
2024-02-13T12:24:58.854Z,17.27
2024-02-13T12:26:40.274Z,17.74
2024-02-13T12:28:21.616Z,17.79
2024-02-13T12:30:03.008Z,17.70
2024-02-13T12:31:44.433Z,18.01
2024-02-13T12:33:25.929Z,18.21
2024-02-13T12:35:07.397Z,18.32
2024-02-13T12:36:48.833Z,17.99
2024-02-13T12:38:31.578Z,17.38
2024-02-13T12:40:13.306Z,17.37
2024-02-13T12:41:54.724Z,17.75
2024-02-13T12:43:36.116Z,17.90
2024-02-13T12:45:17.539Z,17.88
2024-02-13T12:46:59.033Z,18.15
2024-02-13T12:48:41.439Z,18.32
2024-02-13T12:50:23.397Z,18.41
2024-02-13T12:52:04.945Z,18.44
2024-02-13T12:53:46.303Z,18.34
2024-02-13T12:55:27.692Z,17.29
2024-02-13T12:57:09.077Z,15.58
2024-02-13T12:58:50.410Z,15.39
2024-02-13T13:00:31.747Z,14.78
2024-02-13T13:02:13.086Z,15.12
2024-02-13T13:03:54.463Z,14.42
2024-02-13T13:05:35.948Z,14.50
2024-02-13T13:07:17.347Z,13.92
2024-02-13T13:08:58.924Z,14.48
2024-02-13T13:10:40.489Z,14.44
2024-02-13T13:12:21.919Z,14.38
2024-02-13T13:14:03.359Z,15.47
2024-02-13T13:15:44.801Z,16.06
2024-02-13T13:17:26.255Z,16.34
2024-02-13T13:19:07.998Z,16.13
2024-02-13T13:20:49.682Z,16.58
2024-02-13T13:22:31.164Z,16.64
2024-02-13T13:24:12.588Z,17.07
2024-02-13T13:25:54.233Z,17.20
2024-02-13T13:27:35.661Z,17.26
2024-02-13T13:29:17.213Z,17.41
2024-02-13T13:30:58.701Z,13.90
2024-02-13T13:32:40.155Z,11.56
2024-02-13T13:34:22.323Z,10.68
2024-02-13T13:36:04.102Z,10.09
2024-02-13T13:37:45.622Z,9.70
2024-02-13T13:39:26.997Z,10.42
2024-02-13T13:41:08.517Z,10.06
2024-02-13T13:42:50.142Z,9.59
2024-02-13T13:44:31.790Z,9.19
2024-02-13T13:46:13.164Z,8.85
2024-02-13T13:47:54.600Z,7.65
2024-02-13T13:49:36.232Z,8.50
2024-02-13T13:51:17.760Z,7.83
2024-02-13T13:52:59.116Z,7.62
2024-02-13T13:54:40.438Z,8.39
2024-02-13T13:56:21.849Z,8.14
2024-02-13T13:58:03.258Z,8.59
2024-02-13T13:59:44.648Z,7.54
2024-02-13T14:01:26.087Z,8.36
2024-02-13T14:03:07.507Z,8.28
2024-02-13T14:04:48.874Z,8.05
2024-02-13T14:06:30.316Z,7.58
2024-02-13T14:08:11.724Z,7.99
2024-02-13T14:09:53.166Z,8.50
2024-02-13T14:11:34.522Z,8.63
2024-02-13T14:13:15.890Z,8.36
2024-02-13T14:14:57.277Z,8.49
2024-02-13T14:16:38.687Z,8.22
2024-02-13T14:18:20.288Z,8.14
2024-02-13T14:20:01.850Z,8.61
2024-02-13T14:21:43.287Z,8.70
2024-02-13T14:23:24.900Z,8.25
2024-02-13T14:25:06.373Z,8.27
2024-02-13T14:26:48.020Z,7.92
2024-02-13T14:28:29.624Z,8.60
2024-02-13T14:30:10.996Z,9.18
2024-02-13T14:31:52.357Z,9.16
2024-02-13T14:33:34.128Z,7.62
2024-02-13T14:35:15.696Z,7.69
2024-02-13T14:36:57.083Z,7.78
2024-02-13T14:38:38.467Z,8.14
2024-02-13T14:40:19.885Z,7.98
2024-02-13T14:42:01.584Z,7.02
2024-02-13T14:43:43.195Z,6.04
2024-02-13T14:45:24.576Z,6.24
2024-02-13T14:47:05.925Z,5.66
2024-02-13T14:48:48.515Z,4.95
2024-02-13T14:50:30.355Z,5.06
2024-02-13T14:52:12.122Z,4.81
2024-02-13T14:53:53.625Z,4.85
2024-02-13T14:55:35.077Z,5.09
2024-02-13T14:57:16.526Z,4.64
2024-02-13T14:58:57.921Z,5.23
2024-02-13T15:00:39.418Z,4.88
2024-02-13T15:02:20.946Z,4.44
2024-02-13T15:04:02.341Z,4.67
2024-02-13T15:05:43.824Z,4.34
2024-02-13T15:07:25.362Z,4.88
2024-02-13T15:09:06.942Z,4.62
2024-02-13T15:10:48.428Z,4.55
2024-02-13T15:12:29.788Z,4.66
2024-02-13T15:14:11.160Z,4.47
2024-02-13T15:15:52.957Z,4.33
2024-02-13T15:17:34.481Z,4.80
2024-02-13T15:19:16.225Z,4.66
2024-02-13T15:20:57.880Z,5.10
2024-02-13T15:22:39.253Z,5.32
2024-02-13T15:24:20.856Z,5.08
2024-02-13T15:26:02.392Z,4.62
2024-02-13T15:27:43.812Z,4.46
2024-02-13T15:29:25.254Z,4.01
2024-02-13T15:31:06.649Z,4.17
2024-02-13T15:32:48.161Z,3.54
2024-02-13T15:34:29.604Z,3.83
2024-02-13T15:36:11.061Z,3.97
2024-02-13T15:37:52.490Z,4.18
2024-02-13T15:39:34.066Z,4.21
2024-02-13T15:41:15.465Z,3.67
2024-02-13T15:42:58.884Z,3.71
2024-02-13T15:44:41.142Z,3.34
2024-02-13T15:46:22.662Z,2.99
2024-02-13T15:48:04.236Z,2.74
2024-02-13T15:49:45.758Z,2.36
2024-02-13T15:51:27.272Z,2.10
2024-02-13T15:53:08.623Z,2.44
2024-02-13T15:54:49.993Z,2.50
2024-02-13T15:56:31.379Z,2.54
2024-02-13T15:58:12.776Z,2.87
2024-02-13T15:59:54.196Z,2.55
2024-02-13T16:01:35.671Z,2.93
2024-02-13T16:03:17.181Z,2.54
2024-02-13T16:04:58.534Z,2.68
2024-02-13T16:06:39.982Z,2.74
2024-02-13T16:08:21.792Z,2.77
2024-02-13T16:10:03.406Z,2.28
2024-02-13T16:11:45.013Z,2.33
2024-02-13T16:13:28.387Z,2.26
2024-02-13T16:15:11.192Z,2.42
2024-02-13T16:16:55.576Z,2.42
2024-02-13T16:18:37.189Z,1.92
2024-02-13T16:20:18.713Z,2.21
2024-02-13T16:22:00.360Z,2.09
2024-02-13T16:23:41.904Z,1.63
2024-02-13T16:25:23.367Z,1.88
2024-02-13T16:27:04.988Z,1.82
2024-02-13T16:28:46.548Z,2.02
2024-02-13T16:30:28.056Z,1.66
2024-02-13T16:32:09.584Z,1.80
2024-02-13T16:33:51.151Z,2.15
2024-02-13T16:35:32.935Z,2.09
2024-02-13T16:37:14.338Z,2.13
2024-02-13T16:38:55.773Z,2.08
2024-02-13T16:40:37.194Z,2.38
2024-02-13T16:42:18.694Z,2.08
2024-02-13T16:44:00.101Z,2.01
2024-02-13T16:45:41.642Z,1.16
2024-02-13T16:47:23.284Z,0.96
2024-02-13T16:49:04.928Z,1.00
2024-02-13T16:50:46.391Z,0.47
2024-02-13T16:52:27.776Z,0.41
2024-02-13T16:54:09.173Z,0.64
2024-02-13T16:55:50.741Z,0.71
2024-02-13T16:57:32.301Z,0.52
2024-02-13T16:59:13.838Z,0.82
2024-02-13T17:00:55.265Z,0.79
2024-02-13T17:02:36.783Z,1.06
2024-02-13T17:04:18.278Z,1.25
2024-02-13T17:05:59.760Z,1.57
2024-02-13T17:07:41.555Z,1.46
2024-02-13T17:09:23.111Z,0.98
2024-02-13T17:11:04.477Z,0.36
2024-02-13T17:12:45.880Z,0.11
2024-02-13T17:14:27.265Z,0.30
2024-02-13T17:16:08.964Z,0.85
2024-02-13T17:17:50.389Z,1.27
2024-02-13T17:19:31.967Z,1.79
2024-02-13T17:21:13.415Z,1.93
2024-02-13T17:22:54.838Z,1.74
2024-02-13T17:24:36.183Z,1.52
2024-02-13T17:26:17.537Z,0.99
2024-02-13T17:27:58.928Z,0.92
2024-02-13T17:29:40.414Z,1.23
2024-02-13T17:31:22.324Z,1.28
2024-02-13T17:33:03.982Z,0.52
2024-02-13T17:34:45.599Z,0.38
2024-02-13T17:36:27.161Z,0.54
2024-02-13T17:38:08.629Z,0.76
2024-02-13T17:39:50.054Z,0.92
2024-02-13T17:41:31.573Z,1.27
2024-02-13T17:43:12.965Z,1.90
2024-02-13T17:44:54.355Z,2.04
2024-02-13T17:46:35.718Z,2.18
2024-02-13T17:48:17.212Z,2.18
2024-02-13T17:49:58.705Z,1.63
2024-02-13T17:51:40.123Z,1.28
2024-02-13T17:53:21.519Z,0.56
2024-02-13T17:55:05.606Z,0.56
2024-02-13T17:56:48.685Z,0.72
2024-02-13T17:58:30.124Z,0.86
2024-02-13T18:00:11.742Z,0.48
2024-02-13T18:01:53.124Z,0.51
2024-02-13T18:03:34.672Z,-0.39
2024-02-13T18:05:16.187Z,-0.06
2024-02-13T18:06:57.732Z,-0.10
2024-02-13T18:08:39.257Z,0.44
2024-02-13T18:10:20.658Z,0.44
2024-02-13T18:12:02.090Z,0.52
2024-02-13T18:13:43.567Z,0.88
2024-02-13T18:15:24.928Z,1.24
2024-02-13T18:17:06.317Z,0.81
2024-02-13T18:18:47.928Z,0.92
2024-02-13T18:20:30.109Z,0.88
2024-02-13T18:22:11.734Z,1.10
2024-02-13T18:23:55.203Z,1.28
2024-02-13T18:25:37.477Z,1.77
2024-02-13T18:27:18.826Z,1.55
2024-02-13T18:29:00.174Z,1.72
2024-02-13T18:30:41.540Z,2.12
2024-02-13T18:32:22.924Z,1.35
2024-02-13T18:34:04.527Z,0.63
2024-02-13T18:35:46.537Z,0.84
2024-02-13T18:37:28.185Z,0.80
2024-02-13T18:39:09.756Z,0.86
2024-02-13T18:40:51.250Z,1.25
2024-02-13T18:42:32.622Z,1.55
2024-02-13T18:44:13.986Z,1.63
2024-02-13T18:45:55.392Z,1.82
2024-02-13T18:47:36.909Z,1.61
2024-02-13T18:49:18.439Z,1.17
2024-02-13T18:51:01.103Z,1.18
2024-02-13T18:52:43.814Z,1.06
2024-02-13T18:54:25.187Z,1.35
2024-02-13T18:56:06.561Z,1.48
2024-02-13T18:57:47.932Z,1.84
2024-02-13T18:59:29.996Z,2.13
2024-02-13T19:01:11.700Z,2.31
2024-02-13T19:02:53.146Z,2.29
2024-02-13T19:04:34.620Z,1.18
2024-02-13T19:06:16.066Z,0.73
2024-02-13T19:07:57.455Z,0.47
2024-02-13T19:09:38.811Z,0.02
2024-02-13T19:11:20.161Z,-0.25
2024-02-13T19:13:01.515Z,-0.01
2024-02-13T19:14:42.899Z,0.11
2024-02-13T19:16:24.235Z,0.39
2024-02-13T19:18:05.729Z,0.79
2024-02-13T19:19:47.266Z,0.82
2024-02-13T19:21:28.679Z,0.60
2024-02-13T19:23:11.236Z,0.84
2024-02-13T19:24:52.640Z,0.70
2024-02-13T19:26:34.246Z,0.24
2024-02-13T19:28:15.885Z,0.34
2024-02-13T19:29:57.975Z,0.63
2024-02-13T19:31:39.380Z,0.48
2024-02-13T19:33:20.926Z,0.34
2024-02-13T19:35:02.488Z,0.52
2024-02-13T19:36:43.859Z,0.70
2024-02-13T19:38:26.061Z,0.59
2024-02-13T19:40:07.681Z,0.86
2024-02-13T19:41:49.065Z,0.91
2024-02-13T19:43:30.446Z,0.54
2024-02-13T19:45:11.848Z,0.47
2024-02-13T19:46:53.201Z,-0.03
2024-02-13T19:48:34.626Z,-0.09
2024-02-13T19:50:16.137Z,-0.35
2024-02-13T19:51:57.529Z,0.12
2024-02-13T19:53:38.916Z,0.47
2024-02-13T19:55:20.438Z,0.07
2024-02-13T19:57:01.814Z,0.50
2024-02-13T19:58:43.241Z,0.79
2024-02-13T20:00:24.650Z,0.84
2024-02-13T20:02:06.385Z,1.39
2024-02-13T20:03:47.751Z,0.91
2024-02-13T20:05:29.298Z,0.44
2024-02-13T20:07:10.864Z,0.29
2024-02-13T20:08:52.437Z,0.65
2024-02-13T20:10:33.912Z,0.47
2024-02-13T20:12:15.330Z,0.46
2024-02-13T20:13:56.690Z,0.10
2024-02-13T20:15:38.137Z,-0.34
2024-02-13T20:17:19.531Z,-0.27
2024-02-13T20:19:01.267Z,0.09
2024-02-13T20:20:42.915Z,0.16
2024-02-13T20:22:24.285Z,0.65
2024-02-13T20:24:05.773Z,0.81
2024-02-13T20:25:47.250Z,0.84
2024-02-13T20:27:28.596Z,0.33
2024-02-13T20:29:09.951Z,0.61
2024-02-13T20:30:51.347Z,1.06
2024-02-13T20:32:32.860Z,1.29
2024-02-13T20:34:14.426Z,1.28
2024-02-13T20:35:55.954Z,1.14
2024-02-13T20:37:37.370Z,1.32
2024-02-13T20:39:18.738Z,1.47
2024-02-13T20:41:00.087Z,1.33
2024-02-13T20:42:41.439Z,1.27
2024-02-13T20:44:22.850Z,1.51
2024-02-13T20:46:04.232Z,1.79
2024-02-13T20:47:46.895Z,2.12
2024-02-13T20:49:28.544Z,2.32
2024-02-13T20:51:10.043Z,1.69
2024-02-13T20:52:51.471Z,1.09
2024-02-13T20:54:33.007Z,0.59
2024-02-13T20:56:14.359Z,0.34
2024-02-13T20:57:55.685Z,0.30
2024-02-13T20:59:37.140Z,0.50
2024-02-13T21:01:18.553Z,0.58
2024-02-13T21:03:00.094Z,0.72
2024-02-13T21:04:41.536Z,0.36
2024-02-13T21:06:22.954Z,-0.25
2024-02-13T21:08:04.392Z,-0.46
2024-02-13T21:09:45.883Z,-0.55
2024-02-13T21:11:27.328Z,-0.32
2024-02-13T21:13:08.762Z,-0.18
2024-02-13T21:14:50.169Z,0.28
2024-02-13T21:16:31.700Z,0.77
2024-02-13T21:18:13.098Z,0.81
2024-02-13T21:19:54.614Z,0.84
2024-02-13T21:21:35.978Z,0.75
2024-02-13T21:23:17.328Z,1.24
2024-02-13T21:24:58.691Z,1.15
2024-02-13T21:26:40.209Z,0.64
2024-02-13T21:28:21.596Z,0.48
2024-02-13T21:30:03.022Z,0.64
2024-02-13T21:31:44.478Z,0.67
2024-02-13T21:33:25.905Z,0.26
2024-02-13T21:35:07.363Z,0.49
2024-02-13T21:36:48.790Z,0.53
2024-02-13T21:38:30.358Z,0.92
2024-02-13T21:40:11.712Z,1.38
2024-02-13T21:41:53.136Z,0.80
2024-02-13T21:43:34.497Z,-0.02
2024-02-13T21:45:15.937Z,-0.12
2024-02-13T21:46:57.323Z,0.14
2024-02-13T21:48:38.804Z,0.49
2024-02-13T21:50:20.274Z,1.11
2024-02-13T21:52:01.616Z,1.52
2024-02-13T21:53:42.971Z,1.02
2024-02-13T21:55:24.387Z,0.38
2024-02-13T21:57:05.745Z,0.53
2024-02-13T21:58:47.145Z,0.53
2024-02-13T22:00:28.517Z,1.04
2024-02-13T22:02:09.858Z,1.45
2024-02-13T22:03:51.279Z,1.41
2024-02-13T22:05:32.686Z,1.46
2024-02-13T22:07:14.101Z,1.60
2024-02-13T22:08:55.561Z,1.97
2024-02-13T22:10:37.045Z,2.01
2024-02-13T22:12:18.406Z,1.41